Time;durP1;ratioP1;P1;durP2;ratioP2;P2;SDS_P1;SDS_P2;PMS_P1;PMS_P2;Temp;Humidity;BMP_temperature;BMP_pressure;BME280_temperature;BME280_humidity;BME280_pressure;Samples;Min_cycle;Max_cycle;Signal;HPM_P1;HPM_P2
2022/08/05 00:01:19;;;;;;;10.07;7.45;;;;;;;24.41;70.32;100612.34;5017203;28;20550;-85
2022/08/05 00:03:48;;;;;;;13.65;8.27;;;;;;;24.41;70.36;100606.84;5016615;28;20110;-84
2022/08/05 00:06:15;;;;;;;23.30;8.38;;;;;;;24.36;70.19;100603.91;5016806;28;20021;-85
2022/08/05 00:08:41;;;;;;;13.02;8.98;;;;;;;24.38;70.86;100599.03;5017101;28;20029;-85
2022/08/05 00:11:13;;;;;;;12.40;9.38;;;;;;;24.27;72.33;100572.22;5016728;28;20515;-84
2022/08/05 00:13:41;;;;;;;15.85;10.13;;;;;;;24.36;73.24;100595.66;5016725;28;20049;-83
2022/08/05 00:16:12;;;;;;;24.10;11.27;;;;;;;24.37;73.52;100589.13;5017059;28;20046;-84
2022/08/05 00:18:45;;;;;;;15.63;10.87;;;;;;;24.31;73.73;100588.06;4999063;28;20061;-83
2022/08/05 00:21:12;;;;;;;24.88;11.23;;;;;;;24.23;74.36;100581.94;5016844;28;20022;-85
2022/08/05 00:23:38;;;;;;;16.40;10.00;;;;;;;24.23;74.44;100581.94;5016926;28;20480;-85
2022/08/05 00:26:05;;;;;;;13.18;10.10;;;;;;;24.14;73.94;100575.84;5016085;28;20164;-85
2022/08/05 00:28:30;;;;;;;12.10;8.50;;;;;;;24.26;73.65;100587.88;5016406;28;20079;-85
2022/08/05 00:30:56;;;;;;;14.45;10.10;;;;;;;24.19;73.17;100564.19;5016693;28;20117;-84
2022/08/05 00:33:21;;;;;;;14.60;9.98;;;;;;;24.33;72.80;100585.97;4999262;28;20032;-84
2022/08/05 00:35:47;;;;;;;17.20;9.50;;;;;;;24.30;72.82;100578.13;4998711;28;20030;-86
2022/08/05 00:38:13;;;;;;;16.52;11.68;;;;;;;24.29;73.22;100581.09;5016145;28;20030;-86
2022/08/05 00:40:47;;;;;;;23.65;13.10;;;;;;;24.26;73.42;100570.53;5016666;28;20022;-86
2022/08/05 00:43:13;;;;;;;14.05;12.40;;;;;;;24.28;73.82;100574.72;5016949;28;20412;-85
2022/08/05 00:45:39;;;;;;;19.13;13.95;;;;;;;24.24;73.95;100567.16;4999663;28;20030;-87
2022/08/05 00:48:05;;;;;;;23.40;14.15;;;;;;;24.15;73.98;100549.19;5019512;28;20461;-86
2022/08/05 00:50:31;;;;;;;21.15;14.40;;;;;;;24.17;74.65;100560.81;5016353;28;20121;-86
2022/08/05 00:52:57;;;;;;;20.58;14.35;;;;;;;24.16;74.59;100550.88;5015898;28;20057;-85
2022/08/05 00:55:22;;;;;;;18.90;13.23;;;;;;;24.04;74.77;100541.56;4997748;28;20480;-86
2022/08/05 00:57:48;;;;;;;32.35;15.25;;;;;;;24.09;74.91;100550.03;4997171;28;20431;-85
2022/08/05 01:00:13;;;;;;;26.80;13.45;;;;;;;24.10;74.41;100559.94;5014347;28;20031;-85
2022/08/05 01:02:39;;;;;;;19.25;13.95;;;;;;;24.06;75.25;100561.44;4997187;28;20026;-86
2022/08/05 01:05:04;;;;;;;15.98;12.10;;;;;;;23.99;75.12;100557.84;5015141;28;20408;-85
2022/08/05 01:07:30;;;;;;;25.27;12.90;;;;;;;24.04;75.06;100560.81;4997765;28;20092;-87
2022/08/05 01:09:56;;;;;;;19.17;12.73;;;;;;;23.99;74.95;100549.63;5014838;28;20104;-86
2022/08/05 01:12:23;;;;;;;20.92;13.57;;;;;;;24.00;74.60;100559.56;5015204;28;20112;-85
2022/08/05 01:15:00;;;;;;;22.67;12.93;;;;;;;23.86;75.67;100553.22;5014564;28;20053;-86
2022/08/05 01:17:34;;;;;;;22.83;13.57;;;;;;;23.94;75.55;100566.75;4997101;28;20060;-85
2022/08/05 01:20:18;;;;;;;29.30;12.82;;;;;;;23.95;75.11;100568.44;5015175;28;20025;-85
2022/08/05 01:23:22;;;;;;;19.20;12.55;;;;;;;23.96;75.28;100572.88;4997346;28;20091;-85
2022/08/05 01:26:12;;;;;;;27.70;12.02;;;;;;;23.95;75.09;100567.56;5014988;28;20026;-86
2022/08/05 01:28:57;;;;;;;16.92;12.40;;;;;;;23.87;75.27;100565.91;5014983;28;20767;-85
2022/08/05 01:31:28;;;;;;;18.88;12.75;;;;;;;23.89;75.26;100566.53;5014840;28;20077;-86
2022/08/05 01:34:01;;;;;;;18.83;12.30;;;;;;;23.89;74.78;100551.94;5014687;28;20081;-85
2022/08/05 01:36:31;;;;;;;20.52;12.60;;;;;;;23.83;75.02;100554.50;5014844;28;20034;-87
2022/08/05 01:38:58;;;;;;;18.73;13.27;;;;;;;23.87;75.19;100557.66;4997460;28;20037;-87
2022/08/05 01:41:26;;;;;;;17.30;12.32;;;;;;;23.91;75.00;100550.69;4997011;28;20086;-87
2022/08/05 01:43:53;;;;;;;17.33;11.68;;;;;;;23.85;74.74;100533.13;4997300;28;20061;-87
2022/08/05 01:46:21;;;;;;;19.23;12.57;;;;;;;23.88;74.85;100542.03;5014621;28;20029;-88
2022/08/05 01:48:48;;;;;;;25.05;13.88;;;;;;;23.89;74.75;100543.69;5014794;28;20030;-87
2022/08/05 01:51:16;;;;;;;22.77;14.20;;;;;;;23.90;74.09;100545.41;4996777;28;20503;-88
2022/08/05 01:53:45;;;;;;;18.77;13.15;;;;;;;23.84;74.34;100536.13;5014447;28;20552;-86
2022/08/05 01:56:13;;;;;;;20.48;13.40;;;;;;;23.84;74.60;100545.22;4997168;28;20032;-87
2022/08/05 01:58:41;;;;;;;35.08;20.08;;;;;;;23.84;74.28;100545.22;4997413;28;20089;-87
2022/08/05 02:01:08;;;;;;;25.23;14.45;;;;;;;23.80;73.85;100532.94;5014570;28;20105;-87
2022/08/05 02:03:43;;;;;;;26.00;15.73;;;;;;;23.76;74.17;100531.66;4996977;28;20084;-87
2022/08/05 02:06:09;;;;;;;24.50;15.88;;;;;;;23.84;73.93;100538.88;4996793;28;20033;-87
2022/08/05 02:08:35;;;;;;;23.48;14.65;;;;;;;23.90;74.16;100548.16;5014685;28;20062;-87
2022/08/05 02:11:10;;;;;;;23.48;16.45;;;;;;;23.88;73.69;100542.88;5012813;28;20060;-88
2022/08/05 02:13:53;;;;;;;36.22;18.23;;;;;;;23.96;73.55;100547.28;5014622;28;20057;-87
2022/08/05 02:16:54;;;;;;;25.80;16.15;;;;;;;23.95;73.31;100545.59;4997049;28;20405;-87
2022/08/05 02:19:25;;;;;;;26.17;15.82;;;;;;;23.96;73.37;100552.78;4956928;28;20034;-88
2022/08/05 02:22:20;;;;;;;25.30;15.67;;;;;;;23.92;73.18;100551.53;4990089;28;20045;-87
2022/08/05 02:24:50;;;;;;;19.60;15.73;;;;;;;23.89;73.43;100546.44;4996581;28;20049;-88
2022/08/05 02:27:18;;;;;;;44.22;17.35;;;;;;;23.87;73.28;100545.84;5014887;28;20092;-88
2022/08/05 02:29:46;;;;;;;20.73;14.85;;;;;;;23.89;73.40;100549.19;4997085;28;20034;-88
2022/08/05 02:32:15;;;;;;;38.85;17.38;;;;;;;23.79;73.25;100552.41;5014405;28;20029;-88
2022/08/05 02:34:43;;;;;;;26.60;17.00;;;;;;;23.79;73.59;100547.72;5014249;28;20507;-89
2022/08/05 02:37:11;;;;;;;28.27;15.38;;;;;;;23.77;73.71;100543.50;5013915;28;20026;-83
2022/08/05 02:39:39;;;;;;;24.50;16.48;;;;;;;23.68;73.67;100537.41;5013860;28;20032;-83
2022/08/05 02:42:06;;;;;;;28.23;15.32;;;;;;;23.87;73.16;100554.06;5013728;28;20037;-83
2022/08/05 02:44:36;;;;;;;37.65;16.35;;;;;;;23.72;73.58;100538.66;4996262;28;20030;-83
2022/08/05 02:47:04;;;;;;;23.35;14.30;;;;;;;23.69;73.56;100541.00;5013611;28;20064;-83
2022/08/05 02:49:33;;;;;;;20.58;14.45;;;;;;;23.80;73.16;100559.56;5013793;28;20026;-82
2022/08/05 02:52:04;;;;;;;29.58;15.35;;;;;;;23.70;73.04;100546.25;5013417;28;20058;-83
2022/08/05 02:54:31;;;;;;;26.00;14.50;;;;;;;23.74;73.09;100558.53;5013672;28;20041;-82
2022/08/05 02:56:57;;;;;;;24.23;13.90;;;;;;;23.74;72.54;100549.44;5013351;28;20021;-83
2022/08/05 02:59:25;;;;;;;24.33;11.80;;;;;;;23.66;72.20;100558.75;5013225;28;20413;-83
2022/08/05 03:01:56;;;;;;;24.73;11.10;;;;;;;23.71;71.45;100556.19;5013189;28;20030;-82
2022/08/05 03:04:22;;;;;;;15.35;10.40;;;;;;;23.67;70.30;100548.56;5013437;28;20052;-83
2022/08/05 03:06:48;;;;;;;18.27;9.48;;;;;;;23.75;70.07;100546.47;5013471;28;20030;-83
2022/08/05 03:09:14;;;;;;;25.75;8.18;;;;;;;23.75;69.44;100557.47;5013441;28;20037;-83
2022/08/05 03:11:43;;;;;;;21.48;8.88;;;;;;;23.79;69.28;100552.41;4995690;28;20030;-82
2022/08/05 03:14:09;;;;;;;13.00;6.85;;;;;;;23.79;68.70;100536.75;5012936;28;20049;-82
2022/08/05 03:16:34;;;;;;;16.90;7.15;;;;;;;23.79;68.44;100542.22;5013044;28;20057;-82
2022/08/05 03:19:00;;;;;;;15.82;7.53;;;;;;;23.83;68.05;100548.16;4995813;28;20061;-83
2022/08/05 03:21:26;;;;;;;14.13;7.22;;;;;;;23.93;67.75;100559.56;4995587;28;20030;-82
2022/08/05 03:23:52;;;;;;;17.83;6.47;;;;;;;23.97;67.49;100560.84;5016482;28;20069;-83
2022/08/05 03:26:18;;;;;;;17.33;7.57;;;;;;;24.00;67.17;100565.06;4999248;28;20033;-83
2022/08/05 03:28:44;;;;;;;8.48;6.90;;;;;;;23.96;67.10;100556.38;5016509;28;20550;-84
2022/08/05 03:31:09;;;;;;;12.02;7.53;;;;;;;24.01;66.80;100555.72;5016788;28;20830;-82
2022/08/05 03:33:36;;;;;;;12.32;8.07;;;;;;;23.92;66.86;100544.13;4999260;28;20408;-83
2022/08/05 03:36:01;;;;;;;13.70;7.63;;;;;;;24.00;67.06;100554.06;5017202;28;20061;-83
2022/08/05 03:38:27;;;;;;;14.90;7.70;;;;;;;24.02;66.76;100546.44;5016844;28;20054;-83
2022/08/05 03:40:52;;;;;;;9.30;6.63;;;;;;;24.11;66.91;100562.53;5016696;28;20026;-81
2022/08/05 03:43:19;;;;;;;13.45;6.40;;;;;;;24.12;66.15;100552.38;5016485;28;20033;-83
2022/08/05 03:45:45;;;;;;;17.02;7.22;;;;;;;24.12;65.94;100544.13;5016336;28;20048;-82
2022/08/05 03:48:11;;;;;;;16.00;7.05;;;;;;;24.24;65.69;100561.66;5016263;28;20587;-83
2022/08/05 03:50:50;;;;;;;10.05;5.80;;;;;;;24.23;65.34;100551.72;5016041;28;20026;-82
2022/08/05 03:53:27;;;;;;;14.82;6.45;;;;;;;24.35;64.60;100563.72;5015963;28;20535;-82
2022/08/05 03:56:06;;;;;;;16.20;6.60;;;;;;;24.29;65.08;100559.09;5014930;28;20037;-83
2022/08/05 03:58:35;;;;;;;16.88;7.43;;;;;;;24.31;64.83;100557.00;5015923;28;20037;-82
2022/08/05 04:01:03;;;;;;;9.25;6.32;;;;;;;24.37;64.56;100562.44;5016779;28;20021;-82
2022/08/05 04:03:36;;;;;;;11.55;7.20;;;;;;;24.41;64.50;100565.63;5016386;28;20065;-83
2022/08/05 04:06:04;;;;;;;12.07;7.40;;;;;;;24.48;64.49;100566.44;5016469;28;20034;-83
2022/08/05 04:08:31;;;;;;;13.00;7.68;;;;;;;24.48;64.72;100560.94;5017072;28;20561;-83
2022/08/05 04:10:58;;;;;;;16.55;7.55;;;;;;;24.51;64.21;100568.75;4999797;28;20411;-82
2022/08/05 04:13:25;;;;;;;12.02;7.03;;;;;;;24.55;64.26;100569.19;5016022;28;20054;-82
2022/08/05 04:15:50;;;;;;;12.93;7.25;;;;;;;24.55;64.26;100570.03;5016098;28;20513;-82
2022/08/05 04:18:16;;;;;;;15.25;7.95;;;;;;;24.60;64.33;100567.47;5015958;28;20030;-82
2022/08/05 04:20:42;;;;;;;14.27;6.55;;;;;;;24.62;63.95;100564.47;5016104;28;20025;-83
2022/08/05 04:23:09;;;;;;;9.07;6.22;;;;;;;24.60;64.26;100550.97;5017601;28;20476;-83
2022/08/05 04:25:34;;;;;;;10.45;6.32;;;;;;;24.67;64.01;100560.03;5016311;28;20026;-83
2022/08/05 04:28:00;;;;;;;10.43;6.70;;;;;;;24.70;64.08;100556.00;5016383;28;20373;-83
2022/08/05 04:30:25;;;;;;;8.38;6.03;;;;;;;24.72;63.59;100554.72;5015304;28;20499;-84
2022/08/05 04:32:51;;;;;;;8.52;6.45;;;;;;;24.72;63.42;100554.72;5015716;28;20084;-83
2022/08/05 04:35:16;;;;;;;17.20;6.70;;;;;;;24.70;63.64;100547.75;5017501;28;20034;-81
2022/08/05 04:37:42;;;;;;;12.35;6.82;;;;;;;24.75;63.56;100548.78;5016062;28;20037;-83
2022/08/05 04:40:08;;;;;;;12.63;6.72;;;;;;;24.78;63.69;100545.59;5015265;28;20579;-88
2022/08/05 04:42:33;;;;;;;16.75;6.80;;;;;;;24.73;63.12;100525.31;5015253;28;20025;-89
2022/08/05 04:44:59;;;;;;;15.52;6.57;;;;;;;24.90;63.03;100560.38;5004964;28;20047;-87
2022/08/05 04:47:27;;;;;;;8.27;6.15;;;;;;;24.82;62.95;100544.13;5017118;28;20080;-90
2022/08/05 04:49:52;;;;;;;13.38;6.40;;;;;;;24.90;62.79;100545.75;5004671;28;20030;-93
2022/08/05 04:52:18;;;;;;;13.80;6.13;;;;;;;24.97;62.66;100551.22;5001247;28;20408;-94
2022/08/05 04:54:43;;;;;;;18.70;6.90;;;;;;;24.96;62.89;100533.88;5003976;28;20038;-93
2022/08/05 04:57:09;;;;;;;16.30;7.60;;;;;;;25.14;62.31;100546.88;5000042;28;20029;-89
2022/08/05 04:59:34;;;;;;;14.85;6.78;;;;;;;25.22;62.36;100550.25;4998751;28;20072;-87
2022/08/05 05:02:00;;;;;;;14.30;5.65;;;;;;;25.28;61.55;100548.50;5015014;28;20079;-85
2022/08/05 05:04:25;;;;;;;27.90;7.78;;;;;;;25.39;61.32;100545.03;4997544;28;20058;-87
2022/08/05 05:06:51;;;;;;;8.85;6.40;;;;;;;25.41;61.13;100545.66;4998432;28;20033;-87
2022/08/05 05:09:16;;;;;;;6.85;6.15;;;;;;;25.42;60.76;100544.56;4998440;28;20097;-87
2022/08/05 05:11:42;;;;;;;11.38;7.75;;;;;;;25.43;60.62;100535.25;5015500;28;20476;-86
2022/08/05 05:14:07;;;;;;;20.05;6.63;;;;;;;25.50;60.60;100541.59;5015044;28;20053;-88
2022/08/05 05:16:33;;;;;;;19.83;7.63;;;;;;;25.55;60.44;100550.03;5013855;28;20034;-86
2022/08/05 05:18:58;;;;;;;7.82;6.35;;;;;;;25.63;60.19;100549.72;5015110;28;20032;-88
2022/08/05 05:21:24;;;;;;;16.63;7.10;;;;;;;25.72;60.29;100550.28;5015677;28;20492;-89
2022/08/05 05:23:49;;;;;;;14.02;6.50;;;;;;;25.72;59.92;100548.38;5014960;28;20044;-88
2022/08/05 05:26:15;;;;;;;11.15;6.78;;;;;;;25.79;59.88;100551.94;5014521;28;20475;-83
2022/08/05 05:28:40;;;;;;;25.38;7.93;;;;;;;25.89;59.52;100555.03;4996967;28;20034;-84
2022/08/05 05:31:06;;;;;;;20.17;7.53;;;;;;;25.97;59.35;100557.47;5014444;28;20121;-85
2022/08/05 05:33:31;;;;;;;12.85;7.25;;;;;;;25.87;59.17;100532.34;5014286;28;20040;-85
2022/08/05 05:35:56;;;;;;;10.63;6.97;;;;;;;26.06;59.38;100546.16;4996766;28;20108;-80
2022/08/05 05:38:22;;;;;;;22.45;8.23;;;;;;;26.10;58.90;100536.38;5014072;28;20025;-82
2022/08/05 05:40:47;;;;;;;21.33;9.30;;;;;;;26.18;58.86;100545.22;5014294;28;20029;-81
2022/08/05 05:43:13;;;;;;;18.25;7.28;;;;;;;26.23;58.63;100539.88;5011141;28;20026;-83
2022/08/05 05:45:38;;;;;;;34.13;19.77;;;;;;;26.28;58.65;100537.25;5013224;28;20036;-85
2022/08/05 05:48:07;;;;;;;22.63;8.40;;;;;;;26.32;58.62;100540.41;5013294;28;20037;-83
2022/08/05 05:50:35;;;;;;;11.73;6.60;;;;;;;26.37;57.91;100538.63;5013588;28;20064;-85
2022/08/05 05:53:00;;;;;;;22.00;6.70;;;;;;;26.42;57.92;100541.53;5014702;28;20103;-86
2022/08/05 05:55:26;;;;;;;19.08;7.40;;;;;;;26.52;57.66;100535.47;4994715;28;20073;-79
2022/08/05 05:57:51;;;;;;;12.65;7.60;;;;;;;26.61;57.30;100534.09;5012019;28;20570;-80
2022/08/05 06:00:19;;;;;;;10.43;6.55;;;;;;;26.69;57.13;100542.06;5012830;28;20040;-83
2022/08/05 06:02:46;;;;;;;24.52;7.50;;;;;;;26.74;57.00;100544.97;5011077;28;20034;-86
2022/08/05 06:05:13;;;;;;;24.17;8.05;;;;;;;26.81;56.81;100544.91;5014406;28;20033;-88
2022/08/05 06:07:39;;;;;;;20.60;7.28;;;;;;;26.81;56.61;100529.22;5014519;28;20030;-86
2022/08/05 06:10:06;;;;;;;20.00;7.47;;;;;;;26.98;56.51;100540.44;5014209;28;20029;-88
2022/08/05 06:12:32;;;;;;;26.67;9.57;;;;;;;27.09;56.53;100541.56;5013548;28;20030;-89
2022/08/05 06:15:00;;;;;;;22.40;7.85;;;;;;;27.06;56.21;100548.41;4996691;28;20120;-82
2022/08/05 06:17:25;;;;;;;17.63;7.28;;;;;;;27.06;56.05;100526.31;5013481;28;20057;-83
2022/08/05 06:19:51;;;;;;;17.13;6.90;;;;;;;27.14;56.10;100542.53;5013313;28;20030;-79
2022/08/05 06:22:23;;;;;;;13.68;8.25;;;;;;;27.14;55.61;100531.50;5012838;28;20026;-82
2022/08/05 06:24:49;;;;;;;27.35;9.23;;;;;;;27.20;55.44;100532.47;5010730;28;20025;-76
2022/08/05 06:27:15;;;;;;;26.35;7.22;;;;;;;27.32;55.26;100544.38;5009950;28;20145;-78
2022/08/05 06:29:40;;;;;;;26.15;7.55;;;;;;;27.36;55.50;100531.78;4994975;28;20060;-81
2022/08/05 06:32:07;;;;;;;35.47;7.63;;;;;;;27.43;54.80;100538.09;5011331;28;20026;-79
2022/08/05 06:34:32;;;;;;;21.52;6.70;;;;;;;27.44;54.71;100535.09;5010333;28;20026;-79
2022/08/05 06:36:58;;;;;;;25.85;7.60;;;;;;;27.45;54.52;100541.44;5010966;28;20141;-78
2022/08/05 06:39:24;;;;;;;24.20;7.10;;;;;;;27.55;53.52;100542.53;5010169;28;20026;-78
2022/08/05 06:41:50;;;;;;;14.23;7.15;;;;;;;27.58;53.41;100551.44;4992947;28;20846;-78
2022/08/05 06:44:15;;;;;;;17.80;6.82;;;;;;;27.62;53.41;100545.19;5010583;28;20116;-77
2022/08/05 06:46:41;;;;;;;21.02;6.80;;;;;;;27.67;53.75;100545.34;5010854;28;20030;-78
2022/08/05 06:49:06;;;;;;;20.80;6.93;;;;;;;27.78;52.87;100550.03;5013721;28;20026;-85
2022/08/05 06:51:32;;;;;;;22.63;6.78;;;;;;;27.87;52.31;100548.59;5014269;28;20018;-78
2022/08/05 06:54:02;;;;;;;23.70;6.63;;;;;;;27.91;51.64;100551.72;5012036;28;20033;-78
2022/08/05 06:56:29;;;;;;;10.15;5.97;;;;;;;28.00;50.91;100559.44;4995322;28;20022;-81
2022/08/05 06:58:54;;;;;;;18.00;7.40;;;;;;;28.01;50.75;100555.56;5017020;28;20444;-90
2022/08/05 07:01:20;;;;;;;19.90;6.85;;;;;;;28.08;51.44;100563.78;5017199;28;20503;-84
2022/08/05 07:03:45;;;;;;;9.82;6.72;;;;;;;28.14;51.58;100553.66;4999166;28;20025;-84
2022/08/05 07:06:11;;;;;;;23.27;7.78;;;;;;;28.17;51.52;100544.88;4999355;28;20030;-83
2022/08/05 07:08:36;;;;;;;14.00;6.45;;;;;;;28.32;50.80;100559.91;5017380;28;20413;-82
2022/08/05 07:11:03;;;;;;;16.90;6.75;;;;;;;28.31;50.15;100549.09;5017442;28;20029;-85
2022/08/05 07:18:57;;;;;;;24.45;6.03;;;;;;;28.58;49.10;100564.09;5018442;28;20032;-86
2022/08/05 07:21:22;;;;;;;19.70;6.22;;;;;;;28.58;49.07;100561.31;5000654;28;20022;-85
2022/08/05 07:23:48;;;;;;;29.58;8.35;;;;;;;28.77;49.08;100573.09;4998284;28;20032;-85
2022/08/05 07:26:13;;;;;;;13.57;5.78;;;;;;;28.87;48.83;100567.75;4998930;28;20407;-84
2022/08/05 07:28:39;;;;;;;11.85;5.63;;;;;;;29.01;48.03;100572.78;5017335;28;20026;-85
2022/08/05 07:31:06;;;;;;;16.63;7.05;;;;;;;28.98;47.76;100553.88;5016609;28;20028;-85
2022/08/05 07:33:31;;;;;;;17.48;5.97;;;;;;;29.08;47.58;100564.31;5018927;28;20033;-85
2022/08/05 07:35:58;;;;;;;16.75;6.10;;;;;;;29.11;47.04;100559.09;5017849;28;20029;-85
2022/08/05 07:38:24;;;;;;;19.63;5.88;;;;;;;29.24;46.25;100560.75;5019449;28;20026;-84
2022/08/05 07:40:49;;;;;;;9.50;5.43;;;;;;;29.22;46.44;100556.53;5018097;28;20026;-84
2022/08/05 07:43:15;;;;;;;7.05;5.28;;;;;;;29.33;46.52;100575.06;5018370;28;20080;-84
2022/08/05 07:45:42;;;;;;;10.20;5.55;;;;;;;29.21;45.80;100538.22;5017001;28;20029;-85
2022/08/05 07:48:09;;;;;;;7.10;5.18;;;;;;;29.45;45.14;100565.59;5018727;28;20026;-84
2022/08/05 07:50:35;;;;;;;13.05;5.80;;;;;;;29.49;45.26;100560.38;5001276;28;20030;-83
2022/08/05 07:53:00;;;;;;;12.13;6.07;;;;;;;29.60;45.23;100553.94;5017903;28;20084;-84
2022/08/05 07:55:26;;;;;;;12.23;6.95;;;;;;;29.65;45.00;100551.25;5019647;28;20032;-85
2022/08/05 07:57:51;;;;;;;12.38;5.10;;;;;;;29.64;44.35;100538.47;5020065;28;20101;-85
2022/08/05 08:00:17;;;;;;;10.88;5.63;;;;;;;29.73;44.39;100548.03;5002198;28;20030;-84
2022/08/05 08:02:43;;;;;;;9.35;5.95;;;;;;;29.91;44.33;100569.16;5001887;28;20518;-85
2022/08/05 08:05:09;;;;;;;7.88;5.28;;;;;;;29.79;44.14;100544.25;5018487;28;20029;-85
2022/08/05 08:07:34;;;;;;;9.68;5.22;;;;;;;29.78;44.28;100537.06;5000421;28;20030;-84
2022/08/05 08:10:00;;;;;;;9.20;7.80;;;;;;;29.83;44.32;100537.16;5018013;28;20108;-84
2022/08/05 08:12:26;;;;;;;10.00;7.72;;;;;;;29.95;44.35;100554.56;4999515;28;20022;-85
2022/08/05 08:14:52;;;;;;;8.98;4.38;;;;;;;29.98;44.11;100559.59;5000613;28;20116;-85
2022/08/05 08:17:17;;;;;;;9.95;5.78;;;;;;;30.01;44.24;100553.53;5016512;28;20053;-84
2022/08/05 08:19:44;;;;;;;11.38;5.03;;;;;;;29.99;43.57;100536.31;5017961;28;20057;-84
2022/08/05 08:22:10;;;;;;;15.23;7.00;;;;;;;30.17;44.13;100555.44;5017912;28;20101;-84
2022/08/05 08:24:36;;;;;;;12.77;5.55;;;;;;;30.09;44.06;100539.22;5018213;28;20028;-85
2022/08/05 08:27:03;;;;;;;8.40;4.68;;;;;;;30.25;43.60;100548.59;5017803;28;20153;-85
2022/08/05 08:29:29;;;;;;;12.20;5.30;;;;;;;30.31;43.22;100535.63;5016872;28;20408;-85
2022/08/05 08:31:54;;;;;;;8.57;5.30;;;;;;;30.45;43.15;100545.31;5017107;28;20032;-84
2022/08/05 08:34:22;;;;;;;9.15;5.07;;;;;;;30.43;42.78;100522.50;5017763;28;20038;-85
2022/08/05 08:36:48;;;;;;;11.45;5.35;;;;;;;30.56;42.40;100531.31;4998303;28;20110;-86
2022/08/05 08:39:13;;;;;;;12.88;9.80;;;;;;;30.62;42.41;100537.75;5016251;28;20496;-86
2022/08/05 08:41:46;;;;;;;21.45;5.90;;;;;;;30.65;41.39;100526.97;5015759;28;20022;-84
2022/08/05 08:44:14;;;;;;;16.45;6.32;;;;;;;30.59;41.20;100502.19;5015557;28;20076;-87
2022/08/05 08:46:40;;;;;;;5.85;4.07;;;;;;;30.63;41.02;100498.66;4999228;28;20481;-84
2022/08/05 08:49:07;;;;;;;6.90;4.13;;;;;;;30.82;41.08;100521.38;5017226;28;20030;-86
2022/08/05 08:51:36;;;;;;;16.88;7.70;;;;;;;30.94;41.21;100524.88;5015436;28;20026;-85
2022/08/05 08:54:01;;;;;;;6.28;4.65;;;;;;;30.94;39.20;100513.75;4998445;28;20022;-85
2022/08/05 08:56:27;;;;;;;15.80;4.53;;;;;;;31.06;39.78;100533.03;4997841;28;20048;-85
2022/08/05 08:58:53;;;;;;;4.63;3.17;;;;;;;31.12;39.08;100521.72;4998433;28;20041;-85
2022/08/05 09:01:19;;;;;;;6.53;4.10;;;;;;;31.21;39.36;100513.75;5015783;28;20014;-86
2022/08/05 09:03:46;;;;;;;9.48;4.28;;;;;;;31.27;39.32;100512.69;5015540;28;20032;-86
2022/08/05 09:06:12;;;;;;;9.57;4.30;;;;;;;31.38;39.11;100508.03;4998415;28;20030;-85
2022/08/05 09:08:37;;;;;;;8.70;4.47;;;;;;;31.57;39.47;100515.78;5015017;28;20026;-84
2022/08/05 09:11:03;;;;;;;5.30;4.35;;;;;;;31.67;39.33;100512.25;4997623;28;20026;-85
2022/08/05 09:13:29;;;;;;;11.00;4.38;;;;;;;31.71;38.95;100513.41;4997374;28;20073;-86
2022/08/05 09:15:55;;;;;;;14.35;5.05;;;;;;;31.61;39.01;100510.53;4996999;28;20061;-85
2022/08/05 09:18:20;;;;;;;6.25;4.43;;;;;;;31.56;39.20;100516.06;5014796;28;20029;-84
2022/08/05 09:20:46;;;;;;;9.07;4.32;;;;;;;31.54;39.16;100504.34;4996264;28;20017;-85
2022/08/05 09:23:13;;;;;;;8.93;4.95;;;;;;;31.60;39.26;100523.59;5013949;28;20128;-85
2022/08/05 09:25:41;;;;;;;9.88;4.82;;;;;;;31.48;39.64;100502.59;5014806;28;20040;-85
2022/08/05 09:28:22;;;;;;;12.55;5.18;;;;;;;31.54;40.00;100512.69;5014507;28;20026;-85
2022/08/05 09:30:55;;;;;;;8.93;5.60;;;;;;;31.52;39.80;100512.97;5014235;28;20048;-84
2022/08/05 09:33:22;;;;;;;7.35;4.78;;;;;;;31.47;40.11;100518.44;5014627;28;20026;-85
2022/08/05 09:35:58;;;;;;;11.93;5.50;;;;;;;31.55;39.98;100514.38;4996890;28;20022;-84
2022/08/05 09:38:24;;;;;;;10.93;5.72;;;;;;;31.62;40.14;100515.00;5014287;28;20400;-85
2022/08/05 09:40:49;;;;;;;13.27;5.18;;;;;;;31.63;40.26;100503.59;5014413;28;20022;-85
2022/08/05 09:43:34;;;;;;;14.07;5.30;;;;;;;31.71;39.65;100499.50;5014784;28;20026;-86
2022/08/05 09:46:01;;;;;;;11.63;4.90;;;;;;;31.89;39.12;100515.75;5014058;28;20037;-85
2022/08/05 09:48:32;;;;;;;9.85;5.38;;;;;;;31.77;39.37;100501.19;5013368;28;20076;-86
2022/08/05 09:51:03;;;;;;;5.07;4.33;;;;;;;31.94;38.82;100520.50;5013805;28;20026;-78
2022/08/05 09:53:29;;;;;;;12.57;5.63;;;;;;;31.92;43.48;100509.66;5021310;28;20029;-80
2022/08/05 09:55:58;;;;;;;10.00;5.38;;;;;;;31.80;47.40;100522.91;5026220;28;20108;-81
2022/08/05 09:58:25;;;;;;;15.05;5.38;;;;;;;31.60;49.68;100523.59;5034834;28;20025;-85
2022/08/05 10:00:53;;;;;;;18.60;6.82;;;;;;;31.44;50.47;100540.34;5016561;28;20112;-85
2022/08/05 10:03:19;;;;;;;10.75;5.55;;;;;;;31.15;51.67;100526.75;5016120;28;20049;-81
2022/08/05 10:05:45;;;;;;;17.85;5.75;;;;;;;30.60;53.63;100526.94;5032394;28;20082;-81
2022/08/05 10:08:10;;;;;;;15.10;5.82;;;;;;;30.29;54.31;100540.63;5033342;28;20028;-81
2022/08/05 10:10:44;;;;;;;12.55;7.50;;;;;;;29.87;56.00;100526.41;5030876;28;20512;-80
2022/08/05 10:13:10;;;;;;;11.80;6.13;;;;;;;29.93;55.72;100534.56;5031617;28;20028;-81
2022/08/05 10:15:38;;;;;;;11.75;6.57;;;;;;;29.88;56.16;100519.75;5032563;28;20025;-81
2022/08/05 10:18:13;;;;;;;17.15;6.18;;;;;;;29.84;55.33;100536.09;5014679;28;20112;-81
2022/08/05 10:20:48;;;;;;;10.20;6.13;;;;;;;29.84;55.46;100535.22;5032241;28;20110;-81
2022/08/05 10:23:34;;;;;;;14.75;6.63;;;;;;;29.72;55.83;100531.69;5027066;28;20044;-80
2022/08/05 10:26:04;;;;;;;12.27;6.60;;;;;;;29.72;55.56;100543.63;4995250;28;20088;-83
2022/08/05 10:28:30;;;;;;;16.45;6.88;;;;;;;29.53;56.14;100540.25;4993906;28;20038;-82
2022/08/05 10:30:58;;;;;;;8.82;5.10;;;;;;;29.81;56.01;100524.63;5016910;28;20029;-82
2022/08/05 10:33:27;;;;;;;7.93;6.10;;;;;;;30.02;56.01;100532.19;5037938;28;20022;-82
2022/08/05 10:35:54;;;;;;;9.13;6.18;;;;;;;29.92;56.10;100521.78;5037850;28;20475;-82
2022/08/05 10:38:23;;;;;;;8.40;6.00;;;;;;;30.00;56.21;100537.97;5037296;28;20046;-82
2022/08/05 10:40:48;;;;;;;9.45;5.45;;;;;;;30.07;55.49;100530.31;5019664;28;20112;-82
2022/08/05 10:43:40;;;;;;;10.68;6.15;;;;;;;30.10;55.20;100529.81;5024707;28;20069;-81
2022/08/05 10:46:12;;;;;;;26.80;6.80;;;;;;;30.03;54.67;100540.25;4999366;28;20040;-82
2022/08/05 10:48:37;;;;;;;;;;;;;;;30.11;53.64;100522.34;5000514;28;20034;-81
2022/08/05 10:51:17;;;;;;;14.57;6.03;;;;;;;30.12;54.13;100508.19;5017275;28;19917;-82
2022/08/05 10:53:54;;;;;;;12.13;5.68;;;;;;;30.35;54.41;100521.00;5017732;28;20488;-82
2022/08/05 10:56:22;;;;;;;9.82;5.22;;;;;;;30.54;53.86;100524.34;4999778;28;20551;-81
2022/08/05 10:59:07;;;;;;;8.18;5.93;;;;;;;30.28;55.05;100516.72;5017491;28;20030;-82
2022/08/05 11:01:35;;;;;;;18.60;6.95;;;;;;;30.14;55.43;100533.75;5017236;28;20037;-82
2022/08/05 11:04:13;;;;;;;10.30;6.18;;;;;;;29.95;56.04;100531.50;5016639;28;20435;-82
2022/08/05 11:07:03;;;;;;;13.52;6.07;;;;;;;29.73;56.81;100525.88;5017279;28;20493;-82
2022/08/05 11:10:04;;;;;;;8.80;6.20;;;;;;;29.61;56.76;100525.13;5017169;28;20026;-81
2022/08/05 11:12:43;;;;;;;9.63;6.18;;;;;;;29.62;56.88;100519.34;4937596;29;20463;-81
2022/08/05 11:15:42;;;;;;;19.10;6.88;;;;;;;29.45;56.31;100521.25;5007621;28;20112;-81
2022/08/05 11:18:24;;;;;;;16.90;5.95;;;;;;;29.46;56.42;100511.00;5017623;28;20026;-82
2022/08/05 11:20:50;;;;;;;12.48;6.15;;;;;;;29.69;55.58;100516.41;4998958;28;20102;-81
2022/08/05 11:23:35;;;;;;;14.13;6.60;;;;;;;29.91;55.07;100497.91;5016546;28;20041;-83
2022/08/05 11:26:04;;;;;;;17.08;6.43;;;;;;;30.05;54.92;100503.94;4999266;28;20030;-82
2022/08/05 11:28:29;;;;;;;10.55;6.32;;;;;;;30.11;55.03;100509.31;5016531;28;20385;-82